sensor_id;sensor_type;location;lat;lon;timestamp;pressure;altitude;pressure_sealevel;temperature;humidity
43621;BME280;29213;50.770;7.298;2022-12-16T00:00:45;100205.88;;;-10.81;51.42
43621;BME280;29213;50.770;7.298;2022-12-16T00:03:10;100234.91;;;-10.74;51.44
43621;BME280;29213;50.770;7.298;2022-12-16T00:05:36;100264.16;;;-10.40;51.76
43621;BME280;29213;50.770;7.298;2022-12-16T00:08:02;100209.94;;;-10.72;51.89
43621;BME280;29213;50.770;7.298;2022-12-16T00:10:28;100231.41;;;-10.72;51.80
43621;BME280;29213;50.770;7.298;2022-12-16T00:13:13;100142.66;;;-11.29;51.41
43621;BME280;29213;50.770;7.298;2022-12-16T00:15:39;100252.31;;;-10.86;51.64
43621;BME280;29213;50.770;7.298;2022-12-16T00:18:04;100268.06;;;-11.01;51.71
43621;BME280;29213;50.770;7.298;2022-12-16T00:20:29;100246.19;;;-11.19;51.97
43621;BME280;29213;50.770;7.298;2022-12-16T00:22:56;100179.13;;;-11.51;51.88
43621;BME280;29213;50.770;7.298;2022-12-16T00:25:21;100239.31;;;-11.19;52.45
43621;BME280;29213;50.770;7.298;2022-12-16T00:27:47;100253.41;;;-10.98;52.32
43621;BME280;29213;50.770;7.298;2022-12-16T00:30:12;100218.81;;;-11.22;52.28
43621;BME280;29213;50.770;7.298;2022-12-16T00:32:38;100215.28;;;-11.18;51.58
43621;BME280;29213;50.770;7.298;2022-12-16T00:35:03;100279.41;;;-10.71;52.07
43621;BME280;29213;50.770;7.298;2022-12-16T00:37:29;100119.50;;;-11.67;51.58
43621;BME280;29213;50.770;7.298;2022-12-16T00:39:54;100142.47;;;-11.59;51.57
43621;BME280;29213;50.770;7.298;2022-12-16T00:42:20;100226.88;;;-11.00;51.50
43621;BME280;29213;50.770;7.298;2022-12-16T00:44:45;100209.13;;;-11.11;51.49
43621;BME280;29213;50.770;7.298;2022-12-16T00:47:10;100303.91;;;-10.52;51.48
43621;BME280;29213;50.770;7.298;2022-12-16T00:49:36;100193.09;;;-11.22;51.21
43621;BME280;29213;50.770;7.298;2022-12-16T00:52:01;100273.69;;;-10.84;51.31
43621;BME280;29213;50.770;7.298;2022-12-16T00:54:27;100060.50;;;-12.13;50.87
43621;BME280;29213;50.770;7.298;2022-12-16T00:56:52;100222.03;;;-11.12;51.12
43621;BME280;29213;50.770;7.298;2022-12-16T00:59:17;100079.25;;;-12.09;51.32
43621;BME280;29213;50.770;7.298;2022-12-16T01:01:43;100178.25;;;-11.50;51.02
43621;BME280;29213;50.770;7.298;2022-12-16T01:04:08;100223.25;;;-11.30;51.06
43621;BME280;29213;50.770;7.298;2022-12-16T01:06:33;100231.44;;;-11.54;50.72
43621;BME280;29213;50.770;7.298;2022-12-16T01:08:59;100239.50;;;-11.71;51.23
43621;BME280;29213;50.770;7.298;2022-12-16T01:11:24;100291.78;;;-11.73;51.79
43621;BME280;29213;50.770;7.298;2022-12-16T01:13:50;100208.91;;;-12.30;51.97
43621;BME280;29213;50.770;7.298;2022-12-16T01:16:16;100191.94;;;-12.39;51.94
43621;BME280;29213;50.770;7.298;2022-12-16T01:18:41;100192.19;;;-12.53;52.43
43621;BME280;29213;50.770;7.298;2022-12-16T01:21:07;100307.13;;;-12.19;52.95
43621;BME280;29213;50.770;7.298;2022-12-16T01:23:33;100314.75;;;-12.16;53.10
43621;BME280;29213;50.770;7.298;2022-12-16T01:26:00;100223.13;;;-12.61;53.42
43621;BME280;29213;50.770;7.298;2022-12-16T01:28:29;100198.53;;;-12.76;53.57
43621;BME280;29213;50.770;7.298;2022-12-16T01:30:56;100287.75;;;-12.40;53.58
43621;BME280;29213;50.770;7.298;2022-12-16T01:33:22;100194.59;;;-12.97;54.12
43621;BME280;29213;50.770;7.298;2022-12-16T01:35:48;100146.28;;;-13.27;54.06
43621;BME280;29213;50.770;7.298;2022-12-16T01:38:13;100158.84;;;-13.08;54.51
43621;BME280;29213;50.770;7.298;2022-12-16T01:40:40;100290.59;;;-12.04;54.45
43621;BME280;29213;50.770;7.298;2022-12-16T01:43:10;100204.81;;;-12.42;54.07
43621;BME280;29213;50.770;7.298;2022-12-16T01:45:37;100324.97;;;-11.62;53.33
43621;BME280;29213;50.770;7.298;2022-12-16T01:48:17;100273.06;;;-11.82;53.47
43621;BME280;29213;50.770;7.298;2022-12-16T01:50:44;100112.19;;;-12.77;53.65
43621;BME280;29213;50.770;7.298;2022-12-16T01:53:10;100247.56;;;-11.91;53.14
43621;BME280;29213;50.770;7.298;2022-12-16T01:55:40;100298.41;;;-11.61;52.92
43621;BME280;29213;50.770;7.298;2022-12-16T01:58:08;100328.41;;;-11.60;53.07
43621;BME280;29213;50.770;7.298;2022-12-16T02:00:36;100301.66;;;-11.99;53.37
43621;BME280;29213;50.770;7.298;2022-12-16T02:03:02;100268.31;;;-12.03;53.38
43621;BME280;29213;50.770;7.298;2022-12-16T02:05:28;100215.59;;;-12.23;53.65
43621;BME280;29213;50.770;7.298;2022-12-16T02:10:31;100296.19;;;-11.80;52.54
43621;BME280;29213;50.770;7.298;2022-12-16T02:13:07;100277.38;;;-11.82;52.43
43621;BME280;29213;50.770;7.298;2022-12-16T02:15:42;100336.63;;;-11.43;53.03
43621;BME280;29213;50.770;7.298;2022-12-16T02:20:57;100336.53;;;-11.38;52.48
43621;BME280;29213;50.770;7.298;2022-12-16T02:29:28;100341.69;;;-11.38;52.11
43621;BME280;29213;50.770;7.298;2022-12-16T02:32:05;100338.31;;;-11.42;51.76
43621;BME280;29213;50.770;7.298;2022-12-16T02:34:55;100280.88;;;-11.86;52.21
43621;BME280;29213;50.770;7.298;2022-12-16T02:37:41;100177.50;;;-12.47;52.28
43621;BME280;29213;50.770;7.298;2022-12-16T02:40:32;100318.88;;;-11.55;52.50
43621;BME280;29213;50.770;7.298;2022-12-16T02:43:05;100341.00;;;-11.46;52.03
43621;BME280;29213;50.770;7.298;2022-12-16T02:45:33;100217.31;;;-12.24;51.83
43621;BME280;29213;50.770;7.298;2022-12-16T02:47:59;100299.66;;;-11.84;51.63
43621;BME280;29213;50.770;7.298;2022-12-16T02:50:32;100281.16;;;-12.02;52.01
43621;BME280;29213;50.770;7.298;2022-12-16T02:53:00;100301.41;;;-11.85;51.76
43621;BME280;29213;50.770;7.298;2022-12-16T02:55:37;100301.34;;;-11.82;52.00
43621;BME280;29213;50.770;7.298;2022-12-16T02:58:17;100349.59;;;-11.49;51.87
43621;BME280;29213;50.770;7.298;2022-12-16T03:03:36;100303.78;;;-11.74;51.99
43621;BME280;29213;50.770;7.298;2022-12-16T03:06:03;100288.53;;;-11.83;51.84
43621;BME280;29213;50.770;7.298;2022-12-16T03:08:33;100356.28;;;-11.39;51.40
43621;BME280;29213;50.770;7.298;2022-12-16T03:11:03;100273.19;;;-11.88;51.31
43621;BME280;29213;50.770;7.298;2022-12-16T03:13:32;100255.41;;;-11.99;51.39
43621;BME280;29213;50.770;7.298;2022-12-16T03:16:00;100261.44;;;-12.00;51.29
43621;BME280;29213;50.770;7.298;2022-12-16T03:18:28;100267.38;;;-11.98;50.70
43621;BME280;29213;50.770;7.298;2022-12-16T03:21:05;100346.25;;;-11.53;51.38
43621;BME280;29213;50.770;7.298;2022-12-16T03:23:41;100325.06;;;-11.67;51.55
43621;BME280;29213;50.770;7.298;2022-12-16T03:26:14;100255.66;;;-12.13;51.45
43621;BME280;29213;50.770;7.298;2022-12-16T03:31:40;100347.91;;;-11.50;51.40
43621;BME280;29213;50.770;7.298;2022-12-16T03:34:10;100335.19;;;-11.58;51.46
43621;BME280;29213;50.770;7.298;2022-12-16T03:36:40;100346.41;;;-11.62;51.30
43621;BME280;29213;50.770;7.298;2022-12-16T03:39:08;100209.25;;;-12.51;51.38
43621;BME280;29213;50.770;7.298;2022-12-16T03:41:34;100265.28;;;-12.24;51.37
43621;BME280;29213;50.770;7.298;2022-12-16T03:44:00;100316.97;;;-11.94;51.67
43621;BME280;29213;50.770;7.298;2022-12-16T03:46:26;100345.16;;;-11.89;51.22
43621;BME280;29213;50.770;7.298;2022-12-16T03:48:52;100306.06;;;-12.07;50.78
43621;BME280;29213;50.770;7.298;2022-12-16T03:51:18;100372.09;;;-11.62;50.99
43621;BME280;29213;50.770;7.298;2022-12-16T03:53:44;100348.41;;;-11.78;51.15
43621;BME280;29213;50.770;7.298;2022-12-16T03:56:10;100310.25;;;-12.01;51.24
43621;BME280;29213;50.770;7.298;2022-12-16T03:58:37;100373.00;;;-11.65;51.37
43621;BME280;29213;50.770;7.298;2022-12-16T04:01:06;100343.41;;;-11.87;51.60
43621;BME280;29213;50.770;7.298;2022-12-16T04:03:34;100284.94;;;-12.25;51.55
43621;BME280;29213;50.770;7.298;2022-12-16T04:05:59;100296.84;;;-12.19;51.00
43621;BME280;29213;50.770;7.298;2022-12-16T04:08:25;100264.09;;;-12.58;50.94
43621;BME280;29213;50.770;7.298;2022-12-16T04:10:51;100152.94;;;-13.14;51.21
43621;BME280;29213;50.770;7.298;2022-12-16T04:13:35;100310.81;;;-12.37;50.89
43621;BME280;29213;50.770;7.298;2022-12-16T04:16:19;100336.59;;;-12.43;51.14
43621;BME280;29213;50.770;7.298;2022-12-16T04:19:03;100302.00;;;-12.76;51.42
43621;BME280;29213;50.770;7.298;2022-12-16T04:21:47;100341.78;;;-12.48;51.71
43621;BME280;29213;50.770;7.298;2022-12-16T04:24:32;100327.38;;;-12.55;51.65
43621;BME280;29213;50.770;7.298;2022-12-16T04:26:58;100363.03;;;-12.37;51.90
43621;BME280;29213;50.770;7.298;2022-12-16T04:29:42;100253.75;;;-13.10;51.23
43621;BME280;29213;50.770;7.298;2022-12-16T04:32:27;100388.78;;;-12.45;51.36
43621;BME280;29213;50.770;7.298;2022-12-16T04:35:13;100390.44;;;-12.40;51.71
43621;BME280;29213;50.770;7.298;2022-12-16T04:37:57;100369.16;;;-12.49;51.94
43621;BME280;29213;50.770;7.298;2022-12-16T04:40:41;100329.22;;;-12.65;51.96
43621;BME280;29213;50.770;7.298;2022-12-16T04:43:25;100329.09;;;-12.56;52.26
43621;BME280;29213;50.770;7.298;2022-12-16T04:46:09;100295.97;;;-12.73;51.45
43621;BME280;29213;50.770;7.298;2022-12-16T04:48:53;100285.00;;;-12.81;51.85
43621;BME280;29213;50.770;7.298;2022-12-16T04:51:37;100335.94;;;-12.55;51.50
43621;BME280;29213;50.770;7.298;2022-12-16T04:54:21;100306.34;;;-12.81;51.78
43621;BME280;29213;50.770;7.298;2022-12-16T04:57:05;100380.03;;;-12.31;51.80
43621;BME280;29213;50.770;7.298;2022-12-16T04:59:49;100328.28;;;-12.60;52.11
43621;BME280;29213;50.770;7.298;2022-12-16T05:02:33;100342.69;;;-12.51;51.95
43621;BME280;29213;50.770;7.298;2022-12-16T05:05:17;100332.47;;;-12.54;51.80
43621;BME280;29213;50.770;7.298;2022-12-16T05:08:01;100365.53;;;-12.35;51.46
43621;BME280;29213;50.770;7.298;2022-12-16T05:10:45;100401.22;;;-12.16;51.64
43621;BME280;29213;50.770;7.298;2022-12-16T05:13:29;100424.06;;;-11.98;51.66
43621;BME280;29213;50.770;7.298;2022-12-16T05:16:14;100345.16;;;-12.45;51.70
43621;BME280;29213;50.770;7.298;2022-12-16T05:18:58;100326.41;;;-12.48;51.52
43621;BME280;29213;50.770;7.298;2022-12-16T05:21:42;100347.56;;;-12.35;52.28
43621;BME280;29213;50.770;7.298;2022-12-16T05:24:26;100373.84;;;-12.18;52.23
43621;BME280;29213;50.770;7.298;2022-12-16T05:27:10;100445.09;;;-11.72;52.67
43621;BME280;29213;50.770;7.298;2022-12-16T05:29:54;100377.16;;;-12.09;52.42
43621;BME280;29213;50.770;7.298;2022-12-16T05:32:38;100377.91;;;-12.02;52.04
43621;BME280;29213;50.770;7.298;2022-12-16T05:35:22;100315.16;;;-12.41;52.75
43621;BME280;29213;50.770;7.298;2022-12-16T05:38:06;100414.38;;;-11.80;52.80
43621;BME280;29213;50.770;7.298;2022-12-16T05:40:50;100459.47;;;-11.60;52.64
43621;BME280;29213;50.770;7.298;2022-12-16T05:43:34;100423.72;;;-11.74;53.25
43621;BME280;29213;50.770;7.298;2022-12-16T05:46:18;100417.13;;;-11.93;53.65
43621;BME280;29213;50.770;7.298;2022-12-16T05:49:02;100405.16;;;-11.92;54.43
43621;BME280;29213;50.770;7.298;2022-12-16T05:51:46;100402.81;;;-12.06;54.28
43621;BME280;29213;50.770;7.298;2022-12-16T05:54:30;100420.72;;;-12.05;55.23
43621;BME280;29213;50.770;7.298;2022-12-16T05:57:14;100425.75;;;-11.97;55.08
43621;BME280;29213;50.770;7.298;2022-12-16T05:59:58;100460.81;;;-11.94;56.40
43621;BME280;29213;50.770;7.298;2022-12-16T06:02:42;100377.75;;;-12.50;57.46
43621;BME280;29213;50.770;7.298;2022-12-16T06:05:26;100471.97;;;-11.94;57.58
43621;BME280;29213;50.770;7.298;2022-12-16T06:08:10;100438.59;;;-11.97;57.37
43621;BME280;29213;50.770;7.298;2022-12-16T06:10:54;100418.16;;;-12.05;57.54
43621;BME280;29213;50.770;7.298;2022-12-16T06:13:38;100474.84;;;-11.59;57.59
43621;BME280;29213;50.770;7.298;2022-12-16T06:16:22;100467.28;;;-11.67;57.83
43621;BME280;29213;50.770;7.298;2022-12-16T06:19:06;100315.44;;;-12.58;57.64
43621;BME280;29213;50.770;7.298;2022-12-16T06:21:50;100445.16;;;-11.77;57.93
43621;BME280;29213;50.770;7.298;2022-12-16T06:24:34;100439.44;;;-11.95;57.52
43621;BME280;29213;50.770;7.298;2022-12-16T06:27:18;100505.69;;;-11.59;57.67
43621;BME280;29213;50.770;7.298;2022-12-16T06:30:02;100488.59;;;-11.61;57.23
43621;BME280;29213;50.770;7.298;2022-12-16T06:32:46;100532.72;;;-11.33;57.38
43621;BME280;29213;50.770;7.298;2022-12-16T06:35:35;100531.03;;;-11.35;57.17
43621;BME280;29213;50.770;7.298;2022-12-16T06:38:19;100470.75;;;-11.71;57.10
43621;BME280;29213;50.770;7.298;2022-12-16T06:41:03;100474.88;;;-11.60;57.26
43621;BME280;29213;50.770;7.298;2022-12-16T06:43:47;100493.50;;;-11.46;57.10
43621;BME280;29213;50.770;7.298;2022-12-16T06:46:31;100496.13;;;-11.49;56.98
43621;BME280;29213;50.770;7.298;2022-12-16T06:49:15;100471.47;;;-11.62;57.27
43621;BME280;29213;50.770;7.298;2022-12-16T06:51:59;100510.34;;;-11.26;57.03
43621;BME280;29213;50.770;7.298;2022-12-16T06:54:43;100563.72;;;-10.89;56.91
43621;BME280;29213;50.770;7.298;2022-12-16T06:57:27;100428.78;;;-11.70;56.50
43621;BME280;29213;50.770;7.298;2022-12-16T07:00:11;100513.59;;;-11.16;56.73
43621;BME280;29213;50.770;7.298;2022-12-16T07:02:55;100487.31;;;-11.34;56.44
43621;BME280;29213;50.770;7.298;2022-12-16T07:05:39;100544.22;;;-11.01;56.58
43621;BME280;29213;50.770;7.298;2022-12-16T07:08:23;100564.66;;;-10.93;55.98
43621;BME280;29213;50.770;7.298;2022-12-16T07:11:07;100490.88;;;-11.43;56.31
43621;BME280;29213;50.770;7.298;2022-12-16T07:14:08;100563.25;;;-11.13;55.98
43621;BME280;29213;50.770;7.298;2022-12-16T07:16:52;100489.66;;;-11.75;56.02
43621;BME280;29213;50.770;7.298;2022-12-16T07:19:36;100576.97;;;-11.11;55.93
43621;BME280;29213;50.770;7.298;2022-12-16T07:22:20;100601.56;;;-10.94;55.76
43621;BME280;29213;50.770;7.298;2022-12-16T07:25:05;100542.84;;;-11.22;55.67
43621;BME280;29213;50.770;7.298;2022-12-16T07:27:49;100565.06;;;-11.18;54.88
43621;BME280;29213;50.770;7.298;2022-12-16T07:30:33;100598.22;;;-11.01;54.50
43621;BME280;29213;50.770;7.298;2022-12-16T07:33:17;100563.50;;;-11.28;54.51
43621;BME280;29213;50.770;7.298;2022-12-16T07:36:01;100532.13;;;-11.49;54.76
43621;BME280;29213;50.770;7.298;2022-12-16T07:38:45;100567.69;;;-11.21;54.75
43621;BME280;29213;50.770;7.298;2022-12-16T07:41:29;100612.09;;;-11.09;53.97
43621;BME280;29213;50.770;7.298;2022-12-16T07:44:13;100578.19;;;-11.33;54.17
43621;BME280;29213;50.770;7.298;2022-12-16T07:46:57;100567.13;;;-11.42;54.43
43621;BME280;29213;50.770;7.298;2022-12-16T07:49:41;100601.97;;;-11.20;54.04
43621;BME280;29213;50.770;7.298;2022-12-16T07:52:25;100603.63;;;-11.18;54.08
43621;BME280;29213;50.770;7.298;2022-12-16T07:55:09;100623.97;;;-11.02;54.02
43621;BME280;29213;50.770;7.298;2022-12-16T07:57:53;100590.78;;;-11.18;53.35
43621;BME280;29213;50.770;7.298;2022-12-16T08:00:37;100652.06;;;-10.87;53.63
43621;BME280;29213;50.770;7.298;2022-12-16T08:03:21;100602.81;;;-11.18;52.76
43621;BME280;29213;50.770;7.298;2022-12-16T08:06:06;100660.53;;;-10.81;53.09
43621;BME280;29213;50.770;7.298;2022-12-16T08:08:50;100603.69;;;-11.21;53.24
43621;BME280;29213;50.770;7.298;2022-12-16T08:11:34;100694.59;;;-10.64;55.49
43621;BME280;29213;50.770;7.298;2022-12-16T08:14:18;100648.63;;;-10.89;53.68
43621;BME280;29213;50.770;7.298;2022-12-16T08:17:02;100638.38;;;-10.90;55.13
43621;BME280;29213;50.770;7.298;2022-12-16T08:19:46;100618.81;;;-11.01;53.94
43621;BME280;29213;50.770;7.298;2022-12-16T08:22:31;100617.22;;;-11.08;53.50
43621;BME280;29213;50.770;7.298;2022-12-16T08:25:15;100683.63;;;-10.77;53.50
43621;BME280;29213;50.770;7.298;2022-12-16T08:27:59;100710.22;;;-10.76;53.34
43621;BME280;29213;50.770;7.298;2022-12-16T08:30:43;100683.94;;;-10.99;53.47
43621;BME280;29213;50.770;7.298;2022-12-16T08:33:31;100653.66;;;-11.38;52.77
43621;BME280;29213;50.770;7.298;2022-12-16T08:36:15;100680.09;;;-11.29;53.22
43621;BME280;29213;50.770;7.298;2022-12-16T08:38:59;100681.03;;;-11.35;53.64
43621;BME280;29213;50.770;7.298;2022-12-16T08:41:43;100668.22;;;-11.40;53.87
43621;BME280;29213;50.770;7.298;2022-12-16T08:44:27;100669.09;;;-11.39;54.09
43621;BME280;29213;50.770;7.298;2022-12-16T08:47:11;100653.66;;;-11.38;53.89
43621;BME280;29213;50.770;7.298;2022-12-16T08:49:55;100683.38;;;-11.18;53.43
43621;BME280;29213;50.770;7.298;2022-12-16T08:52:39;100691.84;;;-11.09;53.63
43621;BME280;29213;50.770;7.298;2022-12-16T08:55:23;100550.63;;;-11.85;53.94
43621;BME280;29213;50.770;7.298;2022-12-16T08:58:07;100682.53;;;-11.18;53.55
43621;BME280;29213;50.770;7.298;2022-12-16T09:00:51;100617.84;;;-11.52;53.71
43621;BME280;29213;50.770;7.298;2022-12-16T09:03:36;100672.09;;;-11.72;53.92
43621;BME280;29213;50.770;7.298;2022-12-16T09:06:20;100642.38;;;-11.95;55.01
43621;BME280;29213;50.770;7.298;2022-12-16T09:09:04;100708.69;;;-11.53;54.60
43621;BME280;29213;50.770;7.298;2022-12-16T09:11:48;100701.09;;;-11.63;55.07
43621;BME280;29213;50.770;7.298;2022-12-16T09:14:32;100679.75;;;-11.70;54.84
43621;BME280;29213;50.770;7.298;2022-12-16T09:17:16;100711.16;;;-11.45;55.22
43621;BME280;29213;50.770;7.298;2022-12-16T09:20:14;100654.19;;;-11.81;55.62
43621;BME280;29213;50.770;7.298;2022-12-16T09:23:02;100678.13;;;-11.78;55.51
43621;BME280;29213;50.770;7.298;2022-12-16T09:25:46;100741.88;;;-11.34;55.64
43621;BME280;29213;50.770;7.298;2022-12-16T09:28:30;100587.00;;;-12.19;55.97
43621;BME280;29213;50.770;7.298;2022-12-16T09:31:14;100719.44;;;-11.22;56.04
43621;BME280;29213;50.770;7.298;2022-12-16T09:33:58;100697.19;;;-11.25;55.98
43621;BME280;29213;50.770;7.298;2022-12-16T09:36:42;100712.25;;;-10.97;55.86
43621;BME280;29213;50.770;7.298;2022-12-16T09:39:26;100681.66;;;-11.19;56.06
43621;BME280;29213;50.770;7.298;2022-12-16T09:45:16;100716.16;;;-11.32;57.12
43621;BME280;29213;50.770;7.298;2022-12-16T09:48:21;100723.41;;;-10.96;58.61
43621;BME280;29213;50.770;7.298;2022-12-16T09:51:10;100766.34;;;-10.44;57.41
43621;BME280;29213;50.770;7.298;2022-12-16T09:53:55;100768.66;;;-10.26;57.36
43621;BME280;29213;50.770;7.298;2022-12-16T09:56:41;100717.03;;;-10.20;62.51
43621;BME280;29213;50.770;7.298;2022-12-16T09:59:30;100735.13;;;-9.78;63.07
43621;BME280;29213;50.770;7.298;2022-12-16T10:02:17;100649.09;;;-10.16;58.66
43621;BME280;29213;50.770;7.298;2022-12-16T10:05:09;100694.66;;;-8.92;73.84
43621;BME280;29213;50.770;7.298;2022-12-16T10:08:19;100713.75;;;-7.92;71.53
43621;BME280;29213;50.770;7.298;2022-12-16T10:11:14;100787.63;;;-7.50;62.72
43621;BME280;29213;50.770;7.298;2022-12-16T10:14:05;100762.94;;;-7.95;59.05
43621;BME280;29213;50.770;7.298;2022-12-16T10:17:07;100791.22;;;-7.89;58.18
43621;BME280;29213;50.770;7.298;2022-12-16T10:20:03;100679.19;;;-8.56;57.70
43621;BME280;29213;50.770;7.298;2022-12-16T10:22:58;100780.25;;;-7.32;63.97
43621;BME280;29213;50.770;7.298;2022-12-16T10:25:50;100745.28;;;-7.79;58.37
43621;BME280;29213;50.770;7.298;2022-12-16T10:28:47;100782.69;;;-7.59;57.46
43621;BME280;29213;50.770;7.298;2022-12-16T10:31:32;100772.16;;;-7.84;57.87
43621;BME280;29213;50.770;7.298;2022-12-16T10:34:25;100661.19;;;-8.60;58.84
43621;BME280;29213;50.770;7.298;2022-12-16T10:37:36;100796.22;;;-7.82;58.18
43621;BME280;29213;50.770;7.298;2022-12-16T10:40:26;100749.47;;;-8.43;58.51
43621;BME280;29213;50.770;7.298;2022-12-16T10:43:15;100763.50;;;-8.17;60.90
43621;BME280;29213;50.770;7.298;2022-12-16T10:46:06;100798.50;;;-7.70;60.58
43621;BME280;29213;50.770;7.298;2022-12-16T10:48:55;100712.81;;;-8.22;58.59
43621;BME280;29213;50.770;7.298;2022-12-16T10:51:39;100799.13;;;-7.60;58.57
43621;BME280;29213;50.770;7.298;2022-12-16T10:54:41;100779.31;;;-7.61;58.04
43621;BME280;29213;50.770;7.298;2022-12-16T11:00:48;100803.25;;;-7.54;58.52
43621;BME280;29213;50.770;7.298;2022-12-16T11:03:35;100740.56;;;-7.96;58.39
43621;BME280;29213;50.770;7.298;2022-12-16T11:06:35;100812.78;;;-7.55;58.59
43621;BME280;29213;50.770;7.298;2022-12-16T11:09:30;100815.44;;;-7.58;59.00
43621;BME280;29213;50.770;7.298;2022-12-16T11:12:21;100820.16;;;-7.41;62.27
43621;BME280;29213;50.770;7.298;2022-12-16T11:15:21;100806.75;;;-7.55;62.38
43621;BME280;29213;50.770;7.298;2022-12-16T11:21:14;100811.78;;;-7.51;60.56
43621;BME280;29213;50.770;7.298;2022-12-16T11:24:19;100807.31;;;-7.44;59.78
43621;BME280;29213;50.770;7.298;2022-12-16T11:27:25;100807.69;;;-7.26;59.48
43621;BME280;29213;50.770;7.298;2022-12-16T11:32:59;100797.16;;;-6.90;58.54
43621;BME280;29213;50.770;7.298;2022-12-16T11:35:47;100743.66;;;-7.19;58.19
43621;BME280;29213;50.770;7.298;2022-12-16T11:41:36;100783.84;;;-6.77;58.12
43621;BME280;29213;50.770;7.298;2022-12-16T11:44:25;100802.22;;;-6.57;57.82
43621;BME280;29213;50.770;7.298;2022-12-16T11:47:19;100796.72;;;-6.47;57.73
43621;BME280;29213;50.770;7.298;2022-12-16T11:50:10;100790.53;;;-6.42;57.90
43621;BME280;29213;50.770;7.298;2022-12-16T11:52:58;100740.78;;;-6.53;57.51
43621;BME280;29213;50.770;7.298;2022-12-16T11:55:44;100695.69;;;-6.74;57.65
43621;BME280;29213;50.770;7.298;2022-12-16T11:58:49;100755.03;;;-6.39;57.69
43621;BME280;29213;50.770;7.298;2022-12-16T12:01:44;100771.63;;;-6.18;57.17
43621;BME280;29213;50.770;7.298;2022-12-16T12:04:28;100807.03;;;-5.90;57.57
43621;BME280;29213;50.770;7.298;2022-12-16T12:10:33;100770.16;;;-6.00;57.29
43621;BME280;29213;50.770;7.298;2022-12-16T12:13:50;100820.06;;;-5.66;57.03
43621;BME280;29213;50.770;7.298;2022-12-16T12:16:48;100824.78;;;-3.50;85.89
43621;BME280;29213;50.770;7.298;2022-12-16T12:22:41;100740.13;;;-2.64;63.58
43621;BME280;29213;50.770;7.298;2022-12-16T12:26:04;100692.72;;;-3.48;59.33
43621;BME280;29213;50.770;7.298;2022-12-16T12:31:58;100814.78;;;-3.40;57.85
43621;BME280;29213;50.770;7.298;2022-12-16T12:35:11;100689.47;;;-4.33;57.23
43621;BME280;29213;50.770;7.298;2022-12-16T12:38:10;100822.00;;;-3.66;56.15
43621;BME280;29213;50.770;7.298;2022-12-16T12:40:59;100818.78;;;-3.72;56.41
43621;BME280;29213;50.770;7.298;2022-12-16T12:44:00;100816.06;;;-3.90;56.21
43621;BME280;29213;50.770;7.298;2022-12-16T12:58:12;100781.44;;;-4.13;61.73
43621;BME280;29213;50.770;7.298;2022-12-16T13:00:59;100783.72;;;-3.24;65.68
43621;BME280;29213;50.770;7.298;2022-12-16T13:03:49;100833.72;;;-3.15;59.17
43621;BME280;29213;50.770;7.298;2022-12-16T13:06:59;100752.22;;;-3.78;57.70
43621;BME280;29213;50.770;7.298;2022-12-16T13:09:44;100828.72;;;-3.41;56.67
43621;BME280;29213;50.770;7.298;2022-12-16T13:12:32;100760.59;;;-3.92;56.33
43621;BME280;29213;50.770;7.298;2022-12-16T13:15:36;100829.13;;;-3.50;56.30
43621;BME280;29213;50.770;7.298;2022-12-16T13:18:26;100768.19;;;-3.86;56.01
43621;BME280;29213;50.770;7.298;2022-12-16T13:25:00;100832.97;;;-3.59;55.62
43621;BME280;29213;50.770;7.298;2022-12-16T13:27:48;100808.75;;;-3.82;55.44
43621;BME280;29213;50.770;7.298;2022-12-16T13:30:33;100835.56;;;-3.59;55.95
43621;BME280;29213;50.770;7.298;2022-12-16T13:33:26;100839.09;;;-3.60;55.58
43621;BME280;29213;50.770;7.298;2022-12-16T13:36:13;100755.34;;;-4.11;55.56
43621;BME280;29213;50.770;7.298;2022-12-16T13:39:04;100790.03;;;-3.90;55.68
43621;BME280;29213;50.770;7.298;2022-12-16T13:41:57;100813.84;;;-3.79;55.57
43621;BME280;29213;50.770;7.298;2022-12-16T13:50:36;100850.69;;;-3.67;55.51
43621;BME280;29213;50.770;7.298;2022-12-16T13:53:27;100850.25;;;-3.77;55.68
43621;BME280;29213;50.770;7.298;2022-12-16T13:56:18;100831.13;;;-3.98;56.01
43621;BME280;29213;50.770;7.298;2022-12-16T13:59:05;100789.72;;;-4.25;55.59
43621;BME280;29213;50.770;7.298;2022-12-16T14:02:10;100872.03;;;-3.80;55.64
43621;BME280;29213;50.770;7.298;2022-12-16T14:04:56;100817.00;;;-4.14;56.03
43621;BME280;29213;50.770;7.298;2022-12-16T14:07:41;100843.06;;;-4.15;55.87
43621;BME280;29213;50.770;7.298;2022-12-16T14:10:28;100882.75;;;-3.88;55.69
43621;BME280;29213;50.770;7.298;2022-12-16T14:13:48;100878.63;;;-3.93;55.51
43621;BME280;29213;50.770;7.298;2022-12-16T14:25:34;100880.66;;;-1.49;55.01
43621;BME280;29213;50.770;7.298;2022-12-16T14:31:23;100871.69;;;-2.52;52.96
43621;BME280;29213;50.770;7.298;2022-12-16T14:34:14;100912.88;;;-2.59;52.56
43621;BME280;29213;50.770;7.298;2022-12-16T14:36:59;100915.75;;;-2.84;52.70
43621;BME280;29213;50.770;7.298;2022-12-16T14:39:47;100865.84;;;-3.36;52.86
43621;BME280;29213;50.770;7.298;2022-12-16T14:42:31;100906.59;;;-3.35;53.08
43621;BME280;29213;50.770;7.298;2022-12-16T14:51:25;100890.56;;;-3.88;53.27
43621;BME280;29213;50.770;7.298;2022-12-16T14:54:34;100931.03;;;-3.80;53.52
43621;BME280;29213;50.770;7.298;2022-12-16T14:57:20;100934.00;;;-3.90;53.71
43621;BME280;29213;50.770;7.298;2022-12-16T15:05:55;100879.13;;;-4.50;57.52
43621;BME280;29213;50.770;7.298;2022-12-16T15:08:55;100953.03;;;-3.88;64.24
43621;BME280;29213;50.770;7.298;2022-12-16T15:11:41;100946.41;;;-3.74;63.33
43621;BME280;29213;50.770;7.298;2022-12-16T15:14:29;100962.75;;;-3.48;63.40
43621;BME280;29213;50.770;7.298;2022-12-16T15:17:23;100966.66;;;-3.17;65.95
43621;BME280;29213;50.770;7.298;2022-12-16T15:20:26;100843.84;;;-3.70;63.36
43621;BME280;29213;50.770;7.298;2022-12-16T15:23:32;100934.34;;;-3.34;57.30
43621;BME280;29213;50.770;7.298;2022-12-16T15:26:23;100958.06;;;-3.40;57.06